sensor_id;sensor_type;location;lat;lon;timestamp;P1;durP1;ratioP1;P2;durP2;ratioP2
3967;SDS011;9221;42.646;23.380;2022-07-29T00:00:13;9.20;;;5.43;;
3967;SDS011;9221;42.646;23.380;2022-07-29T00:02:39;13.37;;;5.90;;
3967;SDS011;9221;42.646;23.380;2022-07-29T00:05:04;13.13;;;5.80;;
3967;SDS011;9221;42.646;23.380;2022-07-29T00:07:31;8.93;;;5.80;;
3967;SDS011;9221;42.646;23.380;2022-07-29T00:09:56;8.57;;;5.57;;
3967;SDS011;9221;42.646;23.380;2022-07-29T00:12:22;10.20;;;5.40;;
3967;SDS011;9221;42.646;23.380;2022-07-29T00:14:49;11.40;;;5.60;;
3967;SDS011;9221;42.646;23.380;2022-07-29T00:17:14;16.80;;;6.37;;
3967;SDS011;9221;42.646;23.380;2022-07-29T00:19:40;8.03;;;5.20;;
3967;SDS011;9221;42.646;23.380;2022-07-29T00:22:05;11.70;;;5.93;;
3967;SDS011;9221;42.646;23.380;2022-07-29T00:24:31;11.97;;;6.57;;
3967;SDS011;9221;42.646;23.380;2022-07-29T00:26:56;11.30;;;5.90;;
3967;SDS011;9221;42.646;23.380;2022-07-29T00:29:22;10.47;;;5.33;;
3967;SDS011;9221;42.646;23.380;2022-07-29T00:31:47;16.70;;;5.30;;
3967;SDS011;9221;42.646;23.380;2022-07-29T00:34:13;8.30;;;5.60;;
3967;SDS011;9221;42.646;23.380;2022-07-29T00:36:57;10.20;;;5.90;;
3967;SDS011;9221;42.646;23.380;2022-07-29T00:39:22;10.97;;;5.90;;
3967;SDS011;9221;42.646;23.380;2022-07-29T00:41:48;14.13;;;6.67;;
3967;SDS011;9221;42.646;23.380;2022-07-29T00:44:14;13.70;;;6.50;;
3967;SDS011;9221;42.646;23.380;2022-07-29T00:46:40;11.50;;;6.17;;
3967;SDS011;9221;42.646;23.380;2022-07-29T00:49:05;12.43;;;6.40;;
3967;SDS011;9221;42.646;23.380;2022-07-29T00:51:32;11.43;;;6.73;;
3967;SDS011;9221;42.646;23.380;2022-07-29T00:54:00;13.87;;;6.70;;
3967;SDS011;9221;42.646;23.380;2022-07-29T00:56:26;15.40;;;7.20;;
3967;SDS011;9221;42.646;23.380;2022-07-29T00:58:52;19.60;;;7.60;;
3967;SDS011;9221;42.646;23.380;2022-07-29T01:01:18;21.80;;;7.40;;
3967;SDS011;9221;42.646;23.380;2022-07-29T01:03:44;13.57;;;7.17;;
3967;SDS011;9221;42.646;23.380;2022-07-29T01:06:09;12.23;;;6.60;;
3967;SDS011;9221;42.646;23.380;2022-07-29T01:08:35;17.63;;;7.60;;
3967;SDS011;9221;42.646;23.380;2022-07-29T01:11:01;13.37;;;6.57;;
3967;SDS011;9221;42.646;23.380;2022-07-29T01:13:27;11.03;;;6.63;;
3967;SDS011;9221;42.646;23.380;2022-07-29T01:15:56;15.73;;;5.77;;
3967;SDS011;9221;42.646;23.380;2022-07-29T01:18:30;12.40;;;6.00;;
3967;SDS011;9221;42.646;23.380;2022-07-29T01:28:59;20.20;;;7.70;;
3967;SDS011;9221;42.646;23.380;2022-07-29T01:31:28;16.47;;;6.60;;
3967;SDS011;9221;42.646;23.380;2022-07-29T01:34:02;12.50;;;7.13;;
3967;SDS011;9221;42.646;23.380;2022-07-29T01:39:07;10.70;;;6.13;;
3967;SDS011;9221;42.646;23.380;2022-07-29T01:41:37;10.77;;;6.53;;
3967;SDS011;9221;42.646;23.380;2022-07-29T01:44:13;12.63;;;6.20;;
3967;SDS011;9221;42.646;23.380;2022-07-29T01:46:45;14.50;;;6.27;;
3967;SDS011;9221;42.646;23.380;2022-07-29T01:49:18;12.03;;;6.40;;
3967;SDS011;9221;42.646;23.380;2022-07-29T01:51:50;11.70;;;6.27;;
3967;SDS011;9221;42.646;23.380;2022-07-29T01:56:59;11.27;;;6.03;;
3967;SDS011;9221;42.646;23.380;2022-07-29T01:59:25;13.70;;;6.93;;
3967;SDS011;9221;42.646;23.380;2022-07-29T02:01:53;12.70;;;6.57;;
3967;SDS011;9221;42.646;23.380;2022-07-29T02:04:20;13.70;;;6.53;;
3967;SDS011;9221;42.646;23.380;2022-07-29T02:06:47;15.90;;;6.30;;
3967;SDS011;9221;42.646;23.380;2022-07-29T02:09:15;24.60;;;6.33;;
3967;SDS011;9221;42.646;23.380;2022-07-29T02:11:47;18.83;;;6.33;;
3967;SDS011;9221;42.646;23.380;2022-07-29T02:14:15;10.60;;;5.60;;
3967;SDS011;9221;42.646;23.380;2022-07-29T02:16:43;10.37;;;5.20;;
3967;SDS011;9221;42.646;23.380;2022-07-29T02:19:10;11.37;;;5.67;;
3967;SDS011;9221;42.646;23.380;2022-07-29T02:21:37;12.47;;;6.07;;
3967;SDS011;9221;42.646;23.380;2022-07-29T02:24:04;11.10;;;5.90;;
3967;SDS011;9221;42.646;23.380;2022-07-29T02:26:30;10.90;;;5.93;;
3967;SDS011;9221;42.646;23.380;2022-07-29T02:28:59;14.17;;;6.13;;
3967;SDS011;9221;42.646;23.380;2022-07-29T02:31:26;12.83;;;5.53;;
3967;SDS011;9221;42.646;23.380;2022-07-29T02:33:57;11.93;;;5.57;;
3967;SDS011;9221;42.646;23.380;2022-07-29T02:36:24;9.43;;;5.23;;
3967;SDS011;9221;42.646;23.380;2022-07-29T02:38:51;11.43;;;4.80;;
3967;SDS011;9221;42.646;23.380;2022-07-29T02:44:24;16.70;;;5.17;;
3967;SDS011;9221;42.646;23.380;2022-07-29T02:46:52;11.17;;;5.50;;
3967;SDS011;9221;42.646;23.380;2022-07-29T02:49:40;16.33;;;7.37;;
3967;SDS011;9221;42.646;23.380;2022-07-29T02:52:16;10.17;;;5.00;;
3967;SDS011;9221;42.646;23.380;2022-07-29T02:54:47;13.60;;;5.60;;
3967;SDS011;9221;42.646;23.380;2022-07-29T02:57:27;8.90;;;5.77;;
3967;SDS011;9221;42.646;23.380;2022-07-29T02:59:59;16.07;;;6.17;;
3967;SDS011;9221;42.646;23.380;2022-07-29T03:02:29;11.67;;;5.87;;
3967;SDS011;9221;42.646;23.380;2022-07-29T03:04:59;22.23;;;5.43;;
3967;SDS011;9221;42.646;23.380;2022-07-29T03:07:28;10.17;;;5.60;;
3967;SDS011;9221;42.646;23.380;2022-07-29T03:09:54;11.33;;;6.30;;
3967;SDS011;9221;42.646;23.380;2022-07-29T03:12:20;13.70;;;6.57;;
3967;SDS011;9221;42.646;23.380;2022-07-29T03:14:46;14.50;;;6.53;;
3967;SDS011;9221;42.646;23.380;2022-07-29T03:17:12;13.80;;;7.13;;
3967;SDS011;9221;42.646;23.380;2022-07-29T03:19:38;14.00;;;7.20;;
3967;SDS011;9221;42.646;23.380;2022-07-29T03:22:04;12.37;;;6.60;;
3967;SDS011;9221;42.646;23.380;2022-07-29T03:24:34;13.43;;;7.90;;
3967;SDS011;9221;42.646;23.380;2022-07-29T03:27:00;16.23;;;7.97;;
3967;SDS011;9221;42.646;23.380;2022-07-29T03:29:27;22.03;;;8.23;;
3967;SDS011;9221;42.646;23.380;2022-07-29T03:31:53;23.00;;;8.23;;
3967;SDS011;9221;42.646;23.380;2022-07-29T03:34:19;12.47;;;7.50;;
3967;SDS011;9221;42.646;23.380;2022-07-29T03:36:44;16.80;;;8.70;;
3967;SDS011;9221;42.646;23.380;2022-07-29T03:39:10;18.80;;;8.73;;
3967;SDS011;9221;42.646;23.380;2022-07-29T03:41:40;16.17;;;8.33;;
3967;SDS011;9221;42.646;23.380;2022-07-29T03:44:09;23.33;;;9.10;;
3967;SDS011;9221;42.646;23.380;2022-07-29T03:46:35;19.70;;;8.60;;
3967;SDS011;9221;42.646;23.380;2022-07-29T03:49:03;15.70;;;8.40;;
3967;SDS011;9221;42.646;23.380;2022-07-29T03:51:30;19.07;;;8.40;;
3967;SDS011;9221;42.646;23.380;2022-07-29T03:53:56;16.93;;;8.23;;
3967;SDS011;9221;42.646;23.380;2022-07-29T03:56:22;13.87;;;8.80;;
3967;SDS011;9221;42.646;23.380;2022-07-29T03:58:50;16.43;;;7.53;;
3967;SDS011;9221;42.646;23.380;2022-07-29T04:01:18;10.43;;;5.13;;
3967;SDS011;9221;42.646;23.380;2022-07-29T04:03:44;11.30;;;6.40;;
3967;SDS011;9221;42.646;23.380;2022-07-29T04:06:13;13.27;;;5.90;;
3967;SDS011;9221;42.646;23.380;2022-07-29T04:08:38;10.00;;;6.17;;
3967;SDS011;9221;42.646;23.380;2022-07-29T04:11:04;10.00;;;5.70;;
3967;SDS011;9221;42.646;23.380;2022-07-29T04:13:31;12.63;;;5.80;;
3967;SDS011;9221;42.646;23.380;2022-07-29T04:15:57;12.10;;;5.73;;
3967;SDS011;9221;42.646;23.380;2022-07-29T04:18:22;8.10;;;5.43;;
3967;SDS011;9221;42.646;23.380;2022-07-29T04:20:48;7.70;;;4.97;;
3967;SDS011;9221;42.646;23.380;2022-07-29T04:23:14;9.73;;;5.70;;
3967;SDS011;9221;42.646;23.380;2022-07-29T04:25:40;10.57;;;5.33;;
3967;SDS011;9221;42.646;23.380;2022-07-29T04:28:06;12.83;;;5.33;;
3967;SDS011;9221;42.646;23.380;2022-07-29T04:30:32;8.20;;;4.80;;
3967;SDS011;9221;42.646;23.380;2022-07-29T04:32:59;10.43;;;6.10;;
3967;SDS011;9221;42.646;23.380;2022-07-29T04:35:26;13.60;;;5.80;;
3967;SDS011;9221;42.646;23.380;2022-07-29T04:37:51;10.97;;;5.03;;
3967;SDS011;9221;42.646;23.380;2022-07-29T04:40:17;22.00;;;5.43;;
3967;SDS011;9221;42.646;23.380;2022-07-29T04:42:42;13.53;;;5.17;;
3967;SDS011;9221;42.646;23.380;2022-07-29T04:45:08;8.07;;;4.97;;
3967;SDS011;9221;42.646;23.380;2022-07-29T04:47:34;6.70;;;4.00;;
3967;SDS011;9221;42.646;23.380;2022-07-29T04:49:59;10.73;;;4.50;;
3967;SDS011;9221;42.646;23.380;2022-07-29T04:52:25;12.60;;;5.00;;
3967;SDS011;9221;42.646;23.380;2022-07-29T04:54:50;7.97;;;4.60;;
3967;SDS011;9221;42.646;23.380;2022-07-29T04:57:16;10.20;;;4.53;;
3967;SDS011;9221;42.646;23.380;2022-07-29T04:59:41;7.63;;;4.97;;
3967;SDS011;9221;42.646;23.380;2022-07-29T05:02:07;11.20;;;4.97;;
3967;SDS011;9221;42.646;23.380;2022-07-29T05:04:32;8.17;;;4.70;;
3967;SDS011;9221;42.646;23.380;2022-07-29T05:06:58;7.13;;;4.77;;
3967;SDS011;9221;42.646;23.380;2022-07-29T05:09:23;7.00;;;4.33;;
3967;SDS011;9221;42.646;23.380;2022-07-29T05:11:49;11.20;;;4.27;;
3967;SDS011;9221;42.646;23.380;2022-07-29T05:14:14;8.83;;;4.80;;
3967;SDS011;9221;42.646;23.380;2022-07-29T05:16:39;10.10;;;4.70;;
3967;SDS011;9221;42.646;23.380;2022-07-29T05:19:05;7.50;;;4.30;;
3967;SDS011;9221;42.646;23.380;2022-07-29T05:21:31;11.97;;;5.20;;
3967;SDS011;9221;42.646;23.380;2022-07-29T05:23:56;8.70;;;5.20;;
3967;SDS011;9221;42.646;23.380;2022-07-29T05:26:22;14.43;;;4.70;;
3967;SDS011;9221;42.646;23.380;2022-07-29T05:28:47;5.60;;;3.90;;
3967;SDS011;9221;42.646;23.380;2022-07-29T05:31:13;7.20;;;4.57;;
3967;SDS011;9221;42.646;23.380;2022-07-29T05:33:39;9.80;;;5.60;;
3967;SDS011;9221;42.646;23.380;2022-07-29T05:36:06;8.83;;;5.30;;
3967;SDS011;9221;42.646;23.380;2022-07-29T05:38:32;10.70;;;5.93;;
3967;SDS011;9221;42.646;23.380;2022-07-29T05:40:58;18.77;;;5.93;;
3967;SDS011;9221;42.646;23.380;2022-07-29T05:43:24;11.60;;;5.50;;
3967;SDS011;9221;42.646;23.380;2022-07-29T05:45:51;7.33;;;5.20;;
3967;SDS011;9221;42.646;23.380;2022-07-29T05:48:16;9.00;;;5.27;;
3967;SDS011;9221;42.646;23.380;2022-07-29T05:50:41;12.27;;;5.43;;
3967;SDS011;9221;42.646;23.380;2022-07-29T05:53:07;13.00;;;5.83;;
3967;SDS011;9221;42.646;23.380;2022-07-29T05:55:32;8.20;;;4.93;;
3967;SDS011;9221;42.646;23.380;2022-07-29T05:57:58;6.80;;;4.23;;
3967;SDS011;9221;42.646;23.380;2022-07-29T06:00:23;10.43;;;5.30;;
3967;SDS011;9221;42.646;23.380;2022-07-29T06:02:49;15.00;;;4.90;;
3967;SDS011;9221;42.646;23.380;2022-07-29T06:05:14;10.23;;;4.40;;
3967;SDS011;9221;42.646;23.380;2022-07-29T06:07:40;9.00;;;4.40;;
3967;SDS011;9221;42.646;23.380;2022-07-29T06:10:06;11.57;;;5.20;;
3967;SDS011;9221;42.646;23.380;2022-07-29T06:12:31;11.30;;;5.57;;
3967;SDS011;9221;42.646;23.380;2022-07-29T06:14:57;8.30;;;4.90;;
3967;SDS011;9221;42.646;23.380;2022-07-29T06:17:22;9.60;;;5.70;;
3967;SDS011;9221;42.646;23.380;2022-07-29T06:19:48;9.73;;;5.33;;
3967;SDS011;9221;42.646;23.380;2022-07-29T06:22:14;18.73;;;5.37;;
3967;SDS011;9221;42.646;23.380;2022-07-29T06:24:41;12.63;;;6.20;;
3967;SDS011;9221;42.646;23.380;2022-07-29T06:27:08;12.67;;;5.23;;
3967;SDS011;9221;42.646;23.380;2022-07-29T06:29:37;11.83;;;6.17;;
3967;SDS011;9221;42.646;23.380;2022-07-29T06:32:02;11.17;;;5.53;;
3967;SDS011;9221;42.646;23.380;2022-07-29T06:34:28;9.70;;;5.23;;
3967;SDS011;9221;42.646;23.380;2022-07-29T06:36:54;9.37;;;5.00;;
3967;SDS011;9221;42.646;23.380;2022-07-29T06:39:19;8.17;;;5.30;;
3967;SDS011;9221;42.646;23.380;2022-07-29T06:41:48;16.10;;;5.47;;
3967;SDS011;9221;42.646;23.380;2022-07-29T06:44:15;11.50;;;5.17;;
3967;SDS011;9221;42.646;23.380;2022-07-29T06:46:42;9.90;;;5.23;;
3967;SDS011;9221;42.646;23.380;2022-07-29T06:49:08;14.63;;;4.90;;
3967;SDS011;9221;42.646;23.380;2022-07-29T06:51:34;11.43;;;4.40;;
3967;SDS011;9221;42.646;23.380;2022-07-29T06:53:59;8.07;;;5.07;;
3967;SDS011;9221;42.646;23.380;2022-07-29T06:56:25;8.17;;;4.60;;
3967;SDS011;9221;42.646;23.380;2022-07-29T06:58:51;9.27;;;4.30;;
3967;SDS011;9221;42.646;23.380;2022-07-29T07:01:16;7.67;;;4.07;;
3967;SDS011;9221;42.646;23.380;2022-07-29T07:03:42;7.87;;;4.57;;
3967;SDS011;9221;42.646;23.380;2022-07-29T07:06:07;6.17;;;3.97;;
3967;SDS011;9221;42.646;23.380;2022-07-29T07:08:33;16.33;;;5.00;;
3967;SDS011;9221;42.646;23.380;2022-07-29T07:10:58;9.53;;;4.10;;
3967;SDS011;9221;42.646;23.380;2022-07-29T07:13:24;7.73;;;3.67;;
3967;SDS011;9221;42.646;23.380;2022-07-29T07:15:50;10.80;;;4.67;;
3967;SDS011;9221;42.646;23.380;2022-07-29T07:18:17;9.63;;;4.37;;
3967;SDS011;9221;42.646;23.380;2022-07-29T07:20:43;9.37;;;4.03;;
3967;SDS011;9221;42.646;23.380;2022-07-29T07:23:09;6.43;;;4.23;;
3967;SDS011;9221;42.646;23.380;2022-07-29T07:25:35;7.40;;;3.40;;
3967;SDS011;9221;42.646;23.380;2022-07-29T07:28:01;5.20;;;3.80;;
3967;SDS011;9221;42.646;23.380;2022-07-29T07:30:27;6.60;;;3.57;;
3967;SDS011;9221;42.646;23.380;2022-07-29T07:32:52;7.73;;;3.90;;
3967;SDS011;9221;42.646;23.380;2022-07-29T07:35:18;5.50;;;3.40;;
3967;SDS011;9221;42.646;23.380;2022-07-29T07:37:44;7.47;;;3.77;;
3967;SDS011;9221;42.646;23.380;2022-07-29T07:40:10;5.20;;;3.43;;
3967;SDS011;9221;42.646;23.380;2022-07-29T07:42:39;6.53;;;3.80;;
3967;SDS011;9221;42.646;23.380;2022-07-29T07:45:05;5.33;;;3.20;;
3967;SDS011;9221;42.646;23.380;2022-07-29T07:47:34;6.13;;;3.20;;
3967;SDS011;9221;42.646;23.380;2022-07-29T07:50:00;5.60;;;3.17;;
3967;SDS011;9221;42.646;23.380;2022-07-29T07:52:25;6.10;;;3.03;;
3967;SDS011;9221;42.646;23.380;2022-07-29T07:54:51;4.70;;;3.40;;
3967;SDS011;9221;42.646;23.380;2022-07-29T07:57:16;8.50;;;3.73;;
3967;SDS011;9221;42.646;23.380;2022-07-29T07:59:42;8.93;;;3.27;;
3967;SDS011;9221;42.646;23.380;2022-07-29T08:02:07;9.10;;;3.13;;
3967;SDS011;9221;42.646;23.380;2022-07-29T08:04:34;5.10;;;3.23;;
3967;SDS011;9221;42.646;23.380;2022-07-29T08:07:00;9.70;;;3.10;;
3967;SDS011;9221;42.646;23.380;2022-07-29T08:09:27;7.80;;;2.80;;
3967;SDS011;9221;42.646;23.380;2022-07-29T08:11:53;7.47;;;3.10;;
3967;SDS011;9221;42.646;23.380;2022-07-29T08:14:19;4.87;;;3.10;;
3967;SDS011;9221;42.646;23.380;2022-07-29T08:16:45;7.50;;;3.30;;
3967;SDS011;9221;42.646;23.380;2022-07-29T08:19:11;5.17;;;3.47;;
3967;SDS011;9221;42.646;23.380;2022-07-29T08:21:36;9.50;;;2.90;;
3967;SDS011;9221;42.646;23.380;2022-07-29T08:24:02;6.20;;;3.33;;
3967;SDS011;9221;42.646;23.380;2022-07-29T08:26:46;4.73;;;3.20;;
3967;SDS011;9221;42.646;23.380;2022-07-29T08:29:12;5.60;;;2.90;;
3967;SDS011;9221;42.646;23.380;2022-07-29T08:31:38;6.13;;;2.80;;
3967;SDS011;9221;42.646;23.380;2022-07-29T08:34:04;5.47;;;2.63;;
3967;SDS011;9221;42.646;23.380;2022-07-29T08:36:30;8.93;;;3.17;;
3967;SDS011;9221;42.646;23.380;2022-07-29T08:38:56;5.43;;;3.00;;
3967;SDS011;9221;42.646;23.380;2022-07-29T08:41:22;3.40;;;2.50;;
3967;SDS011;9221;42.646;23.380;2022-07-29T08:43:48;9.00;;;3.07;;
3967;SDS011;9221;42.646;23.380;2022-07-29T08:46:14;4.93;;;3.30;;
3967;SDS011;9221;42.646;23.380;2022-07-29T08:48:41;4.97;;;2.90;;
3967;SDS011;9221;42.646;23.380;2022-07-29T08:51:07;14.43;;;3.27;;
3967;SDS011;9221;42.646;23.380;2022-07-29T08:53:37;9.70;;;3.00;;
3967;SDS011;9221;42.646;23.380;2022-07-29T08:56:06;4.50;;;3.10;;
3967;SDS011;9221;42.646;23.380;2022-07-29T08:58:32;5.90;;;2.50;;
3967;SDS011;9221;42.646;23.380;2022-07-29T09:01:00;15.73;;;3.40;;
3967;SDS011;9221;42.646;23.380;2022-07-29T09:03:29;4.83;;;2.37;;
3967;SDS011;9221;42.646;23.380;2022-07-29T09:05:56;7.20;;;3.23;;
3967;SDS011;9221;42.646;23.380;2022-07-29T09:08:23;12.17;;;3.40;;
3967;SDS011;9221;42.646;23.380;2022-07-29T09:10:49;4.90;;;3.23;;
3967;SDS011;9221;42.646;23.380;2022-07-29T09:13:16;7.60;;;3.23;;
3967;SDS011;9221;42.646;23.380;2022-07-29T09:15:41;8.87;;;4.37;;
3967;SDS011;9221;42.646;23.380;2022-07-29T09:18:07;4.67;;;3.10;;
3967;SDS011;9221;42.646;23.380;2022-07-29T09:20:32;8.00;;;3.67;;
3967;SDS011;9221;42.646;23.380;2022-07-29T09:23:16;8.10;;;3.60;;
3967;SDS011;9221;42.646;23.380;2022-07-29T09:25:41;6.60;;;3.40;;
3967;SDS011;9221;42.646;23.380;2022-07-29T09:28:07;7.17;;;3.43;;
3967;SDS011;9221;42.646;23.380;2022-07-29T09:33:23;9.20;;;3.60;;
3967;SDS011;9221;42.646;23.380;2022-07-29T09:36:05;10.07;;;3.90;;
3967;SDS011;9221;42.646;23.380;2022-07-29T09:38:33;7.73;;;4.20;;
3967;SDS011;9221;42.646;23.380;2022-07-29T09:41:00;9.27;;;4.10;;
3967;SDS011;9221;42.646;23.380;2022-07-29T09:43:27;8.30;;;3.80;;
3967;SDS011;9221;42.646;23.380;2022-07-29T09:45:52;7.53;;;3.77;;
3967;SDS011;9221;42.646;23.380;2022-07-29T09:48:23;9.03;;;3.70;;
3967;SDS011;9221;42.646;23.380;2022-07-29T09:50:50;7.17;;;3.77;;
3967;SDS011;9221;42.646;23.380;2022-07-29T09:53:34;7.40;;;4.17;;
3967;SDS011;9221;42.646;23.380;2022-07-29T09:55:59;6.90;;;3.80;;
3967;SDS011;9221;42.646;23.380;2022-07-29T09:58:25;4.73;;;3.23;;
3967;SDS011;9221;42.646;23.380;2022-07-29T10:00:51;8.33;;;3.90;;
3967;SDS011;9221;42.646;23.380;2022-07-29T10:03:18;14.90;;;4.53;;
3967;SDS011;9221;42.646;23.380;2022-07-29T10:05:44;5.80;;;3.50;;
3967;SDS011;9221;42.646;23.380;2022-07-29T10:08:10;5.90;;;3.60;;
3967;SDS011;9221;42.646;23.380;2022-07-29T10:10:43;5.10;;;3.73;;
3967;SDS011;9221;42.646;23.380;2022-07-29T10:13:09;6.80;;;4.60;;
3967;SDS011;9221;42.646;23.380;2022-07-29T10:15:40;14.30;;;5.57;;
3967;SDS011;9221;42.646;23.380;2022-07-29T10:18:09;5.73;;;4.20;;
3967;SDS011;9221;42.646;23.380;2022-07-29T10:20:35;7.43;;;4.27;;
3967;SDS011;9221;42.646;23.380;2022-07-29T10:23:01;5.43;;;4.20;;
3967;SDS011;9221;42.646;23.380;2022-07-29T10:25:27;5.40;;;3.90;;
3967;SDS011;9221;42.646;23.380;2022-07-29T10:27:53;6.77;;;5.13;;
3967;SDS011;9221;42.646;23.380;2022-07-29T10:30:20;6.57;;;4.10;;
3967;SDS011;9221;42.646;23.380;2022-07-29T10:38:42;8.43;;;4.00;;
3967;SDS011;9221;42.646;23.380;2022-07-29T10:43:55;7.63;;;3.83;;
3967;SDS011;9221;42.646;23.380;2022-07-29T10:46:41;4.70;;;3.30;;
3967;SDS011;9221;42.646;23.380;2022-07-29T10:49:11;4.30;;;3.10;;
3967;SDS011;9221;42.646;23.380;2022-07-29T10:59:40;6.80;;;3.30;;
3967;SDS011;9221;42.646;23.380;2022-07-29T11:07:23;7.33;;;3.87;;
3967;SDS011;9221;42.646;23.380;2022-07-29T11:29:02;8.52;;;4.25;;
3967;SDS011;9221;42.646;23.380;2022-07-29T11:31:44;4.63;;;3.50;;
3967;SDS011;9221;42.646;23.380;2022-07-29T11:34:26;5.20;;;3.22;;
3967;SDS011;9221;42.646;23.380;2022-07-29T11:39:32;8.57;;;3.88;;
3967;SDS011;9221;42.646;23.380;2022-07-29T11:47:33;7.25;;;4.13;;
3967;SDS011;9221;42.646;23.380;2022-07-29T11:50:02;4.28;;;3.20;;
3967;SDS011;9221;42.646;23.380;2022-07-29T11:52:34;4.97;;;3.53;;
3967;SDS011;9221;42.646;23.380;2022-07-29T11:55:03;8.55;;;3.60;;
3967;SDS011;9221;42.646;23.380;2022-07-29T11:57:30;4.68;;;3.90;;
3967;SDS011;9221;42.646;23.380;2022-07-29T11:59:57;5.35;;;3.75;;
3967;SDS011;9221;42.646;23.380;2022-07-29T12:02:23;6.03;;;4.30;;
3967;SDS011;9221;42.646;23.380;2022-07-29T12:04:51;8.20;;;4.10;;
3967;SDS011;9221;42.646;23.380;2022-07-29T12:07:17;6.10;;;3.97;;
3967;SDS011;9221;42.646;23.380;2022-07-29T12:09:50;4.50;;;3.83;;
3967;SDS011;9221;42.646;23.380;2022-07-29T12:12:17;8.55;;;4.13;;
3967;SDS011;9221;42.646;23.380;2022-07-29T12:14:42;8.40;;;4.75;;
3967;SDS011;9221;42.646;23.380;2022-07-29T12:17:33;4.93;;;4.03;;
3967;SDS011;9221;42.646;23.380;2022-07-29T12:20:01;8.63;;;4.75;;
3967;SDS011;9221;42.646;23.380;2022-07-29T12:22:29;6.88;;;4.55;;
3967;SDS011;9221;42.646;23.380;2022-07-29T12:25:03;5.90;;;4.38;;
3967;SDS011;9221;42.646;23.380;2022-07-29T12:27:31;7.65;;;4.63;;
3967;SDS011;9221;42.646;23.380;2022-07-29T12:29:58;13.43;;;4.97;;
3967;SDS011;9221;42.646;23.380;2022-07-29T12:32:38;7.95;;;4.47;;
3967;SDS011;9221;42.646;23.380;2022-07-29T12:35:07;9.88;;;4.65;;
3967;SDS011;9221;42.646;23.380;2022-07-29T12:37:35;5.63;;;4.63;;
3967;SDS011;9221;42.646;23.380;2022-07-29T12:40:03;5.93;;;4.70;;
3967;SDS011;9221;42.646;23.380;2022-07-29T12:42:30;7.05;;;4.53;;
3967;SDS011;9221;42.646;23.380;2022-07-29T12:44:56;7.65;;;4.10;;
3967;SDS011;9221;42.646;23.380;2022-07-29T12:47:21;12.05;;;5.60;;
3967;SDS011;9221;42.646;23.380;2022-07-29T12:49:47;5.95;;;4.47;;
3967;SDS011;9221;42.646;23.380;2022-07-29T12:52:27;6.63;;;4.20;;
3967;SDS011;9221;42.646;23.380;2022-07-29T12:54:53;10.52;;;4.82;;
3967;SDS011;9221;42.646;23.380;2022-07-29T12:57:19;9.70;;;5.53;;
3967;SDS011;9221;42.646;23.380;2022-07-29T12:59:44;9.32;;;5.40;;
3967;SDS011;9221;42.646;23.380;2022-07-29T13:02:22;7.22;;;5.05;;
3967;SDS011;9221;42.646;23.380;2022-07-29T13:04:54;5.72;;;4.35;;
3967;SDS011;9221;42.646;23.380;2022-07-29T13:07:27;8.07;;;5.47;;
3967;SDS011;9221;42.646;23.380;2022-07-29T13:10:17;5.72;;;4.20;;
3967;SDS011;9221;42.646;23.380;2022-07-29T13:15:28;6.25;;;4.97;;
3967;SDS011;9221;42.646;23.380;2022-07-29T13:17:53;9.43;;;5.63;;
3967;SDS011;9221;42.646;23.380;2022-07-29T13:20:22;8.55;;;4.95;;
3967;SDS011;9221;42.646;23.380;2022-07-29T13:22:49;5.70;;;4.60;;
3967;SDS011;9221;42.646;23.380;2022-07-29T13:25:22;8.63;;;5.30;;
3967;SDS011;9221;42.646;23.380;2022-07-29T13:27:49;8.55;;;5.07;;
3967;SDS011;9221;42.646;23.380;2022-07-29T13:30:14;7.13;;;4.72;;
3967;SDS011;9221;42.646;23.380;2022-07-29T13:32:40;6.80;;;4.38;;
3967;SDS011;9221;42.646;23.380;2022-07-29T13:35:06;7.13;;;4.38;;
3967;SDS011;9221;42.646;23.380;2022-07-29T13:37:33;7.75;;;4.68;;
3967;SDS011;9221;42.646;23.380;2022-07-29T13:40:03;7.18;;;4.13;;
3967;SDS011;9221;42.646;23.380;2022-07-29T13:42:29;9.02;;;4.50;;
3967;SDS011;9221;42.646;23.380;2022-07-29T13:44:56;8.13;;;4.88;;
3967;SDS011;9221;42.646;23.380;2022-07-29T13:47:40;7.82;;;4.95;;
3967;SDS011;9221;42.646;23.380;2022-07-29T13:50:06;7.47;;;5.15;;
3967;SDS011;9221;42.646;23.380;2022-07-29T13:52:33;6.88;;;4.50;;
3967;SDS011;9221;42.646;23.380;2022-07-29T13:54:59;11.52;;;5.13;;
3967;SDS011;9221;42.646;23.380;2022-07-29T13:57:25;7.93;;;4.60;;
3967;SDS011;9221;42.646;23.380;2022-07-29T13:59:50;7.57;;;3.75;;
3967;SDS011;9221;42.646;23.380;2022-07-29T14:02:16;7.97;;;4.47;;
3967;SDS011;9221;42.646;23.380;2022-07-29T14:04:42;5.50;;;4.03;;
3967;SDS011;9221;42.646;23.380;2022-07-29T14:07:08;5.83;;;4.50;;
3967;SDS011;9221;42.646;23.380;2022-07-29T14:09:33;10.37;;;4.90;;
3967;SDS011;9221;42.646;23.380;2022-07-29T14:11:59;6.60;;;4.03;;
3967;SDS011;9221;42.646;23.380;2022-07-29T14:14:24;7.20;;;5.00;;
3967;SDS011;9221;42.646;23.380;2022-07-29T14:16:50;8.10;;;4.60;;
3967;SDS011;9221;42.646;23.380;2022-07-29T14:19:15;8.23;;;4.23;;
3967;SDS011;9221;42.646;23.380;2022-07-29T14:21:41;15.83;;;5.07;;
3967;SDS011;9221;42.646;23.380;2022-07-29T14:24:06;6.67;;;4.50;;
3967;SDS011;9221;42.646;23.380;2022-07-29T14:26:32;6.03;;;4.80;;
3967;SDS011;9221;42.646;23.380;2022-07-29T14:28:57;7.10;;;4.60;;
3967;SDS011;9221;42.646;23.380;2022-07-29T14:31:23;6.90;;;4.57;;
3967;SDS011;9221;42.646;23.380;2022-07-29T14:33:48;9.57;;;5.70;;
3967;SDS011;9221;42.646;23.380;2022-07-29T14:36:14;9.90;;;5.77;;
3967;SDS011;9221;42.646;23.380;2022-07-29T14:38:39;6.30;;;4.33;;
3967;SDS011;9221;42.646;23.380;2022-07-29T14:41:05;7.37;;;5.00;;
3967;SDS011;9221;42.646;23.380;2022-07-29T14:43:31;7.30;;;4.82;;
3967;SDS011;9221;42.646;23.380;2022-07-29T14:45:57;6.57;;;4.90;;
3967;SDS011;9221;42.646;23.380;2022-07-29T14:48:22;9.17;;;5.50;;
3967;SDS011;9221;42.646;23.380;2022-07-29T14:50:48;7.93;;;4.80;;
3967;SDS011;9221;42.646;23.380;2022-07-29T14:53:13;6.57;;;4.97;;
3967;SDS011;9221;42.646;23.380;2022-07-29T14:55:39;6.20;;;4.40;;
3967;SDS011;9221;42.646;23.380;2022-07-29T14:58:05;6.30;;;4.33;;
3967;SDS011;9221;42.646;23.380;2022-07-29T15:00:31;5.70;;;4.70;;
3967;SDS011;9221;42.646;23.380;2022-07-29T15:03:01;8.30;;;4.97;;
3967;SDS011;9221;42.646;23.380;2022-07-29T15:05:27;7.53;;;4.90;;
3967;SDS011;9221;42.646;23.380;2022-07-29T15:07:53;7.30;;;4.40;;
3967;SDS011;9221;42.646;23.380;2022-07-29T15:10:18;7.63;;;4.50;;
3967;SDS011;9221;42.646;23.380;2022-07-29T15:12:44;11.50;;;5.87;;
3967;SDS011;9221;42.646;23.380;2022-07-29T15:15:09;7.13;;;4.33;;
3967;SDS011;9221;42.646;23.380;2022-07-29T15:17:35;11.63;;;5.10;;
3967;SDS011;9221;42.646;23.380;2022-07-29T15:20:00;6.87;;;4.13;;
3967;SDS011;9221;42.646;23.380;2022-07-29T15:22:26;7.53;;;4.43;;
3967;SDS011;9221;42.646;23.380;2022-07-29T15:24:51;5.97;;;4.40;;
3967;SDS011;9221;42.646;23.380;2022-07-29T15:27:17;9.30;;;5.03;;
3967;SDS011;9221;42.646;23.380;2022-07-29T15:29:43;6.00;;;4.40;;
3967;SDS011;9221;42.646;23.380;2022-07-29T15:32:09;4.77;;;3.50;;
3967;SDS011;9221;42.646;23.380;2022-07-29T15:34:35;6.20;;;4.60;;
3967;SDS011;9221;42.646;23.380;2022-07-29T15:37:03;6.20;;;3.80;;
3967;SDS011;9221;42.646;23.380;2022-07-29T15:39:30;10.13;;;4.20;;
3967;SDS011;9221;42.646;23.380;2022-07-29T15:41:55;5.50;;;3.77;;
3967;SDS011;9221;42.646;23.380;2022-07-29T15:44:21;6.77;;;3.97;;
3967;SDS011;9221;42.646;23.380;2022-07-29T15:46:47;7.60;;;4.30;;
3967;SDS011;9221;42.646;23.380;2022-07-29T15:49:35;8.63;;;3.73;;
3967;SDS011;9221;42.646;23.380;2022-07-29T15:52:04;7.60;;;4.23;;
3967;SDS011;9221;42.646;23.380;2022-07-29T15:54:31;7.50;;;4.20;;
3967;SDS011;9221;42.646;23.380;2022-07-29T15:56:57;5.77;;;3.53;;
3967;SDS011;9221;42.646;23.380;2022-07-29T15:59:23;11.60;;;4.63;;
3967;SDS011;9221;42.646;23.380;2022-07-29T16:01:48;8.17;;;4.00;;
3967;SDS011;9221;42.646;23.380;2022-07-29T16:04:14;5.33;;;3.63;;
3967;SDS011;9221;42.646;23.380;2022-07-29T16:06:41;5.50;;;4.07;;